»·PEaware :: N378SM L35-CL46

N378SM :: L35-CL46

FLIGHT INFORMATION

Flight Status: Arrived
Operator: Privately registered:
United States
More flights under this callsign
Pilot: Scott M. (2435)
Aircraft: CESSNA 172 SKYHAWK
(C172)
More flights by this aircraft type
Origin: L35 Big Bear City
United States
Destination: CL46 Quail Lake Sky Park
Canada
More flights between these airports :: More routes between these airports
Route: PMD
File this flight plan on PilotEdge
Remarks:
Altitude:
(Current/Filed)
6,500ft
Speed:
(Current/Filed)
120kts
Departed: 05-Apr-17 02:59 PM
Arrived: 05-Apr-17 03:55 PM
Distance/Time
Traveled:
98nm/0:56
Distance/Time
To Go:
Arrived

Flight Plot

Page will automatically refresh every two minutes.


Map Options




Map Legend


Flown Route
Filed Route
Departure Airport
Arrival Airport
Navaid (VOR, NDB)
Fix

Horizontal Profiles

Position Reports

Time Latitude Longitude Heading Altitude Ground
Speed
05-Apr-17 14:46 34.262538 -116.853599 0 6755ft 0kts
05-Apr-17 14:47 34.262538 -116.853599 0 6755ft 0kts
05-Apr-17 14:48 34.262538 -116.853599 0 6755ft 0kts
05-Apr-17 14:49 34.262538 -116.853599 0 6755ft 0kts
05-Apr-17 14:50 34.262538 -116.853599 0 6755ft 0kts
05-Apr-17 14:51 34.262538 -116.853599 0 6755ft 0kts
05-Apr-17 14:52 34.262538 -116.853599 0 6755ft 0kts
05-Apr-17 14:53 34.262538 -116.853599 0 6755ft 0kts
05-Apr-17 14:54 34.262538 -116.853599 0 6755ft 0kts
05-Apr-17 14:55 34.262538 -116.853599 359 6755ft 0kts
05-Apr-17 14:56 34.263391 -116.854638 269 6755ft 9kts
05-Apr-17 14:57 34.263379 -116.858886 270 6755ft 15kts
05-Apr-17 14:58 34.263355 -116.864441 268 6755ft 17kts
05-Apr-17 14:59 34.263808 -116.865831 13 6755ft 4kts
05-Apr-17 15:00 34.263915 -116.848541 90 6848ft 88kts
05-Apr-17 15:01 34.261268 -116.821035 167 7271ft 85kts
05-Apr-17 15:02 34.253148 -116.838730 267 7675ft 76kts
05-Apr-17 15:03 34.252410 -116.864464 265 8092ft 76kts
05-Apr-17 15:04 34.249497 -116.890011 254 8479ft 77kts
05-Apr-17 15:05 34.254992 -116.917512 297 8644ft 98kts
05-Apr-17 15:06 34.269091 -116.948502 302 8727ft 108kts
05-Apr-17 15:07 34.286419 -116.981467 285 8532ft 124kts
05-Apr-17 15:08 34.292631 -117.021055 273 8489ft 120kts
05-Apr-17 15:09 34.291082 -117.060566 263 8474ft 118kts
05-Apr-17 15:10 34.289279 -117.099956 260 8451ft 116kts
05-Apr-17 15:11 34.285708 -117.138947 266 8437ft 117kts
05-Apr-17 15:12 34.288500 -117.177856 281 8439ft 116kts
05-Apr-17 15:13 34.299302 -117.214865 291 8425ft 119kts
05-Apr-17 15:14 34.314777 -117.250908 303 8476ft 123kts
05-Apr-17 15:15 34.331650 -117.287819 294 8442ft 128kts
05-Apr-17 15:16 34.346742 -117.326191 297 8426ft 126kts
05-Apr-17 15:17 34.363448 -117.363282 304 8405ft 125kts
05-Apr-17 15:18 34.386243 -117.394853 325 8377ft 124kts
05-Apr-17 15:19 34.412764 -117.421404 319 8349ft 124kts
05-Apr-17 15:20 34.433929 -117.454868 308 8332ft 124kts
05-Apr-17 15:21 34.456653 -117.486451 308 8295ft 125kts
05-Apr-17 15:22 34.476057 -117.521400 304 8284ft 125kts
05-Apr-17 15:23 34.492789 -117.558415 290 8273ft 125kts
05-Apr-17 15:24 34.502896 -117.598996 288 8259ft 125kts
05-Apr-17 15:25 34.507261 -117.638648 279 8429ft 115kts
05-Apr-17 15:26 34.508614 -117.677123 269 8500ft 116kts
05-Apr-17 15:27 34.509244 -117.716279 277 8571ft 116kts
05-Apr-17 15:28 34.512003 -117.755908 275 8582ft 119kts
05-Apr-17 15:29 34.513279 -117.796520 273 8577ft 120kts
05-Apr-17 15:30 34.518825 -117.836441 277 8564ft 120kts
05-Apr-17 15:31 34.524326 -117.876277 277 8547ft 122kts
05-Apr-17 15:32 34.530466 -117.917140 284 8437ft 125kts
05-Apr-17 15:33 34.542671 -117.956317 288 8304ft 126kts
05-Apr-17 15:34 34.549218 -117.996014 281 8439ft 110kts
05-Apr-17 15:35 34.557356 -118.030821 280 8449ft 110kts
05-Apr-17 15:36 34.567113 -118.064962 276 8568ft 107kts
05-Apr-17 15:37 34.580684 -118.099091 289 8590ft 114kts
05-Apr-17 15:38 34.598993 -118.132016 298 8537ft 124kts
05-Apr-17 15:39 34.618261 -118.166154 285 8218ft 116kts
05-Apr-17 15:40 34.630817 -118.200978 287 7674ft 113kts
05-Apr-17 15:41 34.645839 -118.234949 296 7144ft 114kts
05-Apr-17 15:42 34.654760 -118.271807 289 6625ft 114kts
05-Apr-17 15:43 34.665487 -118.307899 293 6544ft 114kts
05-Apr-17 15:44 34.677684 -118.343861 284 6617ft 115kts
05-Apr-17 15:45 34.683683 -118.375716 282 6684ft 114kts
05-Apr-17 15:46 34.693386 -118.420563 291 6689ft 117kts
05-Apr-17 15:47 34.705866 -118.450393 292 6680ft 119kts
05-Apr-17 15:48 34.721709 -118.492793 310 6689ft 119kts
05-Apr-17 15:49 34.740195 -118.517169 316 6710ft 117kts
05-Apr-17 15:50 34.755037 -118.557225 285 6388ft 116kts
05-Apr-17 15:51 34.761280 -118.589038 267 5985ft 118kts
05-Apr-17 15:52 34.760223 -118.630289 270 5221ft 95kts
05-Apr-17 15:53 34.762969 -118.654375 267 4819ft 85kts
05-Apr-17 15:54 34.764466 -118.687070 260 4267ft 80kts
05-Apr-17 15:55 34.765218 -118.709178 264 3754ft 75kts
05-Apr-17 15:56 34.768026 -118.735088 284 3374ft 35kts
05-Apr-17 15:57 34.768089 -118.736945 103 3374ft 9kts
05-Apr-17 15:58 34.767393 -118.732534 90 3374ft 1kts
05-Apr-17 15:59 34.767404 -118.732500 42 3374ft 0kts

Navigation Log

Ident Type
1. L35 Airport
2. PMD Navaid
3. CL46 Airport